createdAt,value
2023-04-17T00:01:57.968Z,51.30
2023-04-17T00:03:59.875Z,51.40
2023-04-17T00:06:01.650Z,51.40
2023-04-17T00:08:03.367Z,51.30
2023-04-17T00:10:09.864Z,51.30
2023-04-17T00:12:11.520Z,51.30
2023-04-17T00:14:13.477Z,51.20
2023-04-17T00:16:15.375Z,51.30
2023-04-17T00:18:17.020Z,51.30
2023-04-17T00:20:18.699Z,51.40
2023-04-17T00:22:20.482Z,51.40
2023-04-17T00:24:22.160Z,51.50
2023-04-17T00:26:24.045Z,51.40
2023-04-17T00:28:25.726Z,51.40
2023-04-17T00:30:27.403Z,51.40
2023-04-17T00:32:29.165Z,51.30
2023-04-17T00:34:30.969Z,51.30
2023-04-17T00:36:32.668Z,51.40
2023-04-17T00:38:34.312Z,51.30
2023-04-17T00:40:36.223Z,51.20
2023-04-17T00:42:37.860Z,51.20
2023-04-17T00:44:40.013Z,51.20
2023-04-17T00:46:41.766Z,51.30
2023-04-17T00:48:44.184Z,51.10
2023-04-17T00:50:47.350Z,51.80
2023-04-17T00:52:49.580Z,51.30
2023-04-17T00:54:51.251Z,51.30
2023-04-17T00:56:54.292Z,51.20
2023-04-17T00:58:57.633Z,51.30
2023-04-17T01:00:59.994Z,51.30
2023-04-17T01:03:02.130Z,51.20
2023-04-17T01:05:04.191Z,51.20
2023-04-17T01:07:06.084Z,51.20
2023-04-17T01:09:08.537Z,51.20
2023-04-17T01:11:11.126Z,51.20
2023-04-17T01:13:12.892Z,51.80
2023-04-17T01:15:15.401Z,51.10
2023-04-17T01:17:19.572Z,51.10
2023-04-17T01:19:21.505Z,51.10
2023-04-17T01:21:23.319Z,51.10
2023-04-17T01:23:27.403Z,51.20
2023-04-17T01:25:29.277Z,51.10
2023-04-17T01:27:31.034Z,51.10
2023-04-17T01:29:32.687Z,51.10
2023-04-17T01:31:34.318Z,51.10
2023-04-17T01:33:36.078Z,51.00
2023-04-17T01:35:37.769Z,51.00
2023-04-17T01:37:39.436Z,51.10
2023-04-17T01:39:41.101Z,51.10
2023-04-17T01:41:42.801Z,51.10
2023-04-17T01:43:46.169Z,51.10
2023-04-17T01:45:47.889Z,51.00
2023-04-17T01:47:49.644Z,50.90
2023-04-17T01:49:51.321Z,50.90
2023-04-17T01:51:53.071Z,51.00
2023-04-17T01:53:54.761Z,51.00
2023-04-17T01:55:56.532Z,51.00
2023-04-17T01:57:58.178Z,51.00
2023-04-17T01:59:59.860Z,51.00
2023-04-17T02:02:01.586Z,51.70
2023-04-17T02:04:03.574Z,51.10
2023-04-17T02:06:05.525Z,51.10
2023-04-17T02:08:07.243Z,51.00
2023-04-17T02:10:09.439Z,51.00
2023-04-17T02:12:11.086Z,50.90
2023-04-17T02:14:12.727Z,50.90
2023-04-17T02:16:14.616Z,50.90
2023-04-17T02:18:16.457Z,50.80
2023-04-17T02:20:18.109Z,50.80
2023-04-17T02:22:19.764Z,50.90
2023-04-17T02:24:21.433Z,50.90
2023-04-17T02:26:23.443Z,50.90
2023-04-17T02:28:25.518Z,50.80
2023-04-17T02:30:27.874Z,50.90
2023-04-17T02:32:29.557Z,51.00
2023-04-17T02:34:31.225Z,50.90
2023-04-17T02:36:32.888Z,50.80
2023-04-17T02:38:34.499Z,50.80
2023-04-17T02:40:36.105Z,50.90
2023-04-17T02:42:37.870Z,51.00
2023-04-17T02:44:39.910Z,50.90
2023-04-17T02:46:41.632Z,50.80
2023-04-17T02:48:43.265Z,50.80
2023-04-17T02:50:44.958Z,50.70
2023-04-17T02:52:46.728Z,50.80
2023-04-17T02:54:48.401Z,50.80
2023-04-17T02:56:50.994Z,50.80
2023-04-17T02:58:52.719Z,50.80
2023-04-17T03:01:01.448Z,50.80
2023-04-17T03:03:03.504Z,50.80
2023-04-17T03:05:06.987Z,50.80
2023-04-17T03:07:10.325Z,50.80
2023-04-17T03:09:12.320Z,50.80
2023-04-17T03:11:14.204Z,50.80
2023-04-17T03:13:16.130Z,50.70
2023-04-17T03:15:17.874Z,50.70
2023-04-17T03:17:20.721Z,50.70
2023-04-17T03:19:22.382Z,50.60
2023-04-17T03:21:24.199Z,50.70
2023-04-17T03:23:25.831Z,50.70
2023-04-17T03:25:27.489Z,50.70
2023-04-17T03:27:29.193Z,50.90
2023-04-17T03:29:30.873Z,50.80
2023-04-17T03:31:32.564Z,50.80
2023-04-17T03:33:34.291Z,50.80
2023-04-17T03:35:36.107Z,50.90
2023-04-17T03:37:37.765Z,50.80
2023-04-17T03:39:39.495Z,50.40
2023-04-17T03:41:41.458Z,50.30
2023-04-17T03:43:43.152Z,50.20
2023-04-17T03:45:44.759Z,50.00
2023-04-17T03:47:47.764Z,49.80
2023-04-17T03:49:49.562Z,49.90
2023-04-17T03:51:51.306Z,49.50
2023-04-17T03:53:53.284Z,49.30
2023-04-17T03:55:54.971Z,49.20
2023-04-17T03:57:56.633Z,49.10
2023-04-17T03:59:58.373Z,49.00
2023-04-17T04:02:00.678Z,48.90
2023-04-17T04:04:02.634Z,48.90
2023-04-17T04:06:04.557Z,48.90
2023-04-17T04:08:06.294Z,48.90
2023-04-17T04:10:08.426Z,49.10
2023-04-17T04:12:10.328Z,49.10
2023-04-17T04:14:12.015Z,49.00
2023-04-17T04:16:13.785Z,49.10
2023-04-17T04:18:17.224Z,49.00
2023-04-17T04:20:18.842Z,49.10
2023-04-17T04:22:21.205Z,49.10
2023-04-17T04:24:23.651Z,49.30
2023-04-17T04:26:27.126Z,49.40
2023-04-17T04:28:30.212Z,49.40
2023-04-17T04:30:35.822Z,49.60
2023-04-17T04:32:37.600Z,49.60
2023-04-17T04:34:41.823Z,49.70
2023-04-17T04:36:49.860Z,49.50
2023-04-17T04:38:51.503Z,49.90
2023-04-17T04:40:53.126Z,49.50
2023-04-17T04:42:55.912Z,47.60
2023-04-17T04:44:57.638Z,47.50
2023-04-17T04:46:59.411Z,48.20
2023-04-17T04:49:01.150Z,48.90
2023-04-17T04:51:03.109Z,49.50
2023-04-17T04:53:04.754Z,49.60
2023-04-17T04:55:06.795Z,49.90
2023-04-17T04:57:08.458Z,49.80
2023-04-17T04:59:11.231Z,49.80
2023-04-17T05:01:13.334Z,49.90
2023-04-17T05:03:15.497Z,49.90
2023-04-17T05:05:17.435Z,49.80
2023-04-17T05:07:19.072Z,49.80
2023-04-17T05:09:20.762Z,49.80
2023-04-17T05:11:22.457Z,49.70
2023-04-17T05:13:24.200Z,49.70
2023-04-17T05:15:25.934Z,49.80
2023-04-17T05:17:27.669Z,49.90
2023-04-17T05:19:30.675Z,49.70
2023-04-17T05:21:32.397Z,49.70
2023-04-17T05:23:34.139Z,49.50
2023-04-17T05:25:35.928Z,49.70
2023-04-17T05:27:37.740Z,49.50
2023-04-17T05:29:39.354Z,49.40
2023-04-17T05:31:41.112Z,48.10
2023-04-17T05:33:42.839Z,48.10
2023-04-17T05:35:44.444Z,48.80
2023-04-17T05:37:46.489Z,49.70
2023-04-17T05:39:48.106Z,49.00
2023-04-17T05:41:49.715Z,48.90
2023-04-17T05:43:51.326Z,48.90
2023-04-17T05:45:53.099Z,48.90
2023-04-17T05:47:54.785Z,48.90
2023-04-17T05:49:58.434Z,49.00
2023-04-17T05:52:00.130Z,48.90
2023-04-17T05:54:03.197Z,48.80
2023-04-17T05:56:05.564Z,48.80
2023-04-17T05:58:20.376Z,48.70
2023-04-17T06:00:24.702Z,48.70
2023-04-17T06:02:26.658Z,48.60
2023-04-17T06:04:29.465Z,48.60
2023-04-17T06:06:31.498Z,48.60
2023-04-17T06:08:33.160Z,48.60
2023-04-17T06:10:36.643Z,48.50
2023-04-17T06:12:38.375Z,48.60
2023-04-17T06:14:40.063Z,48.50
2023-04-17T06:16:41.816Z,48.40
2023-04-17T06:18:43.823Z,48.40
2023-04-17T06:20:46.346Z,48.50
2023-04-17T06:22:48.083Z,48.40
2023-04-17T06:24:49.688Z,48.40
2023-04-17T06:26:51.306Z,48.30
2023-04-17T06:28:52.951Z,48.20
2023-04-17T06:30:54.683Z,48.20
2023-04-17T06:32:56.428Z,48.10
2023-04-17T06:34:59.493Z,48.20
2023-04-17T06:37:01.745Z,48.10
2023-04-17T06:39:03.507Z,48.10
2023-04-17T06:41:05.307Z,48.10
2023-04-17T06:43:07.194Z,48.10
2023-04-17T06:45:09.283Z,48.10
2023-04-17T06:47:10.971Z,48.10
2023-04-17T06:49:12.797Z,48.10
2023-04-17T06:51:14.849Z,48.10
2023-04-17T06:53:16.476Z,48.10
2023-04-17T06:55:18.216Z,48.00
2023-04-17T06:57:19.866Z,47.90
2023-04-17T06:59:21.467Z,48.00
2023-04-17T07:01:23.129Z,47.90
2023-04-17T07:03:24.973Z,48.00
2023-04-17T07:05:27.056Z,47.90
2023-04-17T07:07:30.658Z,47.80
2023-04-17T07:09:32.364Z,48.00
2023-04-17T07:11:34.198Z,48.10
2023-04-17T07:13:35.815Z,48.00
2023-04-17T07:15:37.416Z,47.80
2023-04-17T07:17:39.268Z,47.80
2023-04-17T07:19:41.028Z,47.90
2023-04-17T07:21:42.667Z,47.90
2023-04-17T07:23:44.557Z,47.80
2023-04-17T07:25:46.408Z,47.80
2023-04-17T07:27:48.093Z,47.70
2023-04-17T07:29:54.465Z,47.70
2023-04-17T07:31:56.480Z,47.70
2023-04-17T07:33:58.250Z,47.60
2023-04-17T07:35:59.856Z,47.70
2023-04-17T07:38:03.736Z,47.70
2023-04-17T07:40:08.873Z,47.70
2023-04-17T07:42:11.357Z,47.70
2023-04-17T07:44:13.058Z,47.70
2023-04-17T07:46:14.715Z,47.60
2023-04-17T07:48:19.471Z,47.70
2023-04-17T07:50:21.489Z,47.70
2023-04-17T07:52:23.222Z,47.70
2023-04-17T07:54:24.906Z,47.80
2023-04-17T07:56:28.083Z,47.80
2023-04-17T07:58:29.716Z,47.70
2023-04-17T08:00:31.390Z,47.60
2023-04-17T08:02:33.202Z,47.60
2023-04-17T08:04:34.971Z,47.60
2023-04-17T08:06:37.128Z,48.20
2023-04-17T08:08:38.812Z,47.50
2023-04-17T08:10:40.589Z,47.50
2023-04-17T08:12:42.250Z,47.50
2023-04-17T08:14:43.966Z,47.50
2023-04-17T08:16:49.573Z,47.50
2023-04-17T08:18:51.382Z,47.60
2023-04-17T08:20:53.695Z,47.60
2023-04-17T08:22:56.040Z,47.60
2023-04-17T08:24:58.155Z,47.50
2023-04-17T08:26:59.947Z,47.40
2023-04-17T08:29:01.756Z,47.40
2023-04-17T08:31:03.705Z,47.30
2023-04-17T08:33:05.501Z,47.30
2023-04-17T08:35:09.769Z,47.30
2023-04-17T08:37:11.550Z,47.40
2023-04-17T08:39:15.085Z,47.30
2023-04-17T08:41:21.840Z,47.30
2023-04-17T08:43:26.014Z,47.40
2023-04-17T08:45:27.931Z,47.30
2023-04-17T08:47:29.696Z,47.20
2023-04-17T08:49:35.025Z,47.30
2023-04-17T08:51:36.691Z,47.40
2023-04-17T08:53:38.388Z,47.40
2023-04-17T08:55:40.091Z,47.50
2023-04-17T08:58:06.171Z,47.40
2023-04-17T09:00:12.101Z,47.40
2023-04-17T09:02:13.925Z,47.10
2023-04-17T09:04:36.840Z,47.30
2023-04-17T09:06:54.509Z,47.30
2023-04-17T09:08:59.301Z,47.40
2023-04-17T09:11:01.103Z,47.40
2023-04-17T09:13:03.032Z,47.30
2023-04-17T09:15:17.582Z,48.10
2023-04-17T09:17:20.644Z,47.50
2023-04-17T09:19:22.318Z,47.40
2023-04-17T09:21:29.079Z,47.40
2023-04-17T09:23:45.389Z,47.40
2023-04-17T09:25:48.941Z,47.40
2023-04-17T09:27:50.764Z,47.50
2023-04-17T09:30:03.442Z,47.50
2023-04-17T09:32:15.983Z,47.50
2023-04-17T09:34:17.867Z,47.50
2023-04-17T09:36:22.361Z,47.50
2023-04-17T09:38:42.140Z,47.50
2023-04-17T09:40:45.143Z,47.50
2023-04-17T09:43:04.454Z,47.50
2023-04-17T09:45:19.741Z,47.40
2023-04-17T09:47:25.177Z,47.40
2023-04-17T09:49:39.759Z,47.50
2023-04-17T09:51:42.314Z,47.50
2023-04-17T09:53:44.006Z,47.40
2023-04-17T09:55:45.737Z,47.50
2023-04-17T09:57:54.111Z,47.60
2023-04-17T09:59:59.512Z,47.60
2023-04-17T10:02:01.674Z,47.60
2023-04-17T10:04:05.095Z,47.60
2023-04-17T10:06:07.650Z,47.30
2023-04-17T10:08:09.314Z,47.40
2023-04-17T10:10:21.682Z,47.50
2023-04-17T10:12:23.800Z,47.50
2023-04-17T10:14:29.900Z,48.10
2023-04-17T10:16:39.049Z,47.50
2023-04-17T10:18:40.924Z,47.50
2023-04-17T10:20:44.730Z,47.50
2023-04-17T10:22:54.809Z,47.50
2023-04-17T10:25:11.426Z,47.50
2023-04-17T10:27:25.628Z,47.60
2023-04-17T10:29:57.580Z,47.50
2023-04-17T10:32:11.687Z,47.60
2023-04-17T10:34:36.511Z,47.50
2023-04-17T10:36:38.166Z,47.50
2023-04-17T10:38:39.787Z,47.50
2023-04-17T10:40:43.586Z,47.50
2023-04-17T10:43:07.557Z,47.50
2023-04-17T10:45:19.090Z,47.50
2023-04-17T10:47:22.335Z,47.50
2023-04-17T10:49:24.687Z,47.50
2023-04-17T10:51:27.787Z,47.40
2023-04-17T10:53:40.595Z,47.40
2023-04-17T10:55:50.496Z,47.50
2023-04-17T10:57:52.076Z,47.60
2023-04-17T11:00:12.049Z,47.60
2023-04-17T11:02:15.984Z,47.50
2023-04-17T11:04:30.720Z,47.50
2023-04-17T11:06:36.896Z,48.00
2023-04-17T11:08:38.758Z,47.40
2023-04-17T11:10:40.756Z,47.30
2023-04-17T11:12:46.667Z,47.30
2023-04-17T11:14:48.326Z,47.30
2023-04-17T11:16:51.489Z,47.30
2023-04-17T11:18:53.210Z,47.30
2023-04-17T11:20:54.919Z,47.30
2023-04-17T11:23:00.664Z,47.30
2023-04-17T11:25:02.607Z,47.40
2023-04-17T11:27:04.689Z,47.30
2023-04-17T11:29:20.413Z,47.30
2023-04-17T11:31:23.599Z,47.30
2023-04-17T11:33:25.943Z,47.20
2023-04-17T11:35:32.367Z,47.20
2023-04-17T11:37:34.020Z,47.30
2023-04-17T11:39:35.865Z,47.20
2023-04-17T11:41:38.618Z,47.30
2023-04-17T11:43:40.261Z,47.20
2023-04-17T11:45:44.741Z,47.20
2023-04-17T11:47:47.864Z,47.20
2023-04-17T11:49:49.598Z,47.20
2023-04-17T11:51:52.053Z,47.20
2023-04-17T11:53:55.248Z,47.30
2023-04-17T11:56:16.334Z,47.30
2023-04-17T11:58:17.973Z,47.30
2023-04-17T12:00:21.801Z,47.00
2023-04-17T12:02:33.461Z,47.10
2023-04-17T12:04:37.371Z,47.30
2023-04-17T12:06:39.088Z,47.00
2023-04-17T12:08:45.925Z,47.20
2023-04-17T12:10:47.595Z,47.50
2023-04-17T12:12:49.334Z,47.50
2023-04-17T12:14:51.245Z,47.30
2023-04-17T12:16:53.028Z,47.30
2023-04-17T12:18:55.606Z,47.40
2023-04-17T12:20:57.317Z,47.30
2023-04-17T12:22:59.026Z,47.30
2023-04-17T12:25:00.727Z,47.30
2023-04-17T12:27:02.400Z,47.30
2023-04-17T12:29:04.059Z,47.30
2023-04-17T12:31:06.406Z,47.30
2023-04-17T12:33:08.155Z,47.30
2023-04-17T12:35:10.004Z,47.30
2023-04-17T12:37:11.828Z,47.20
2023-04-17T12:39:13.579Z,47.20
2023-04-17T12:41:15.263Z,47.20
2023-04-17T12:43:16.928Z,47.20
2023-04-17T12:45:19.315Z,47.30
2023-04-17T12:47:21.004Z,47.30
2023-04-17T12:49:23.743Z,47.30
2023-04-17T12:51:28.330Z,47.30
2023-04-17T12:53:30.254Z,47.30
2023-04-17T12:55:32.276Z,47.30
2023-04-17T12:57:35.656Z,47.30
2023-04-17T12:59:37.274Z,47.20
2023-04-17T13:01:39.133Z,47.30
2023-04-17T13:03:41.071Z,47.20
2023-04-17T13:05:43.038Z,47.30
2023-04-17T13:07:44.697Z,47.20
2023-04-17T13:09:46.632Z,47.30
2023-04-17T13:11:48.298Z,47.30
2023-04-17T13:13:49.973Z,47.30
2023-04-17T13:15:51.628Z,47.30
2023-04-17T13:17:53.397Z,47.30
2023-04-17T13:19:55.086Z,47.30
2023-04-17T13:21:56.769Z,47.40
2023-04-17T13:23:58.476Z,47.30
2023-04-17T13:26:00.261Z,47.30
2023-04-17T13:28:02.033Z,47.30
2023-04-17T13:30:04.016Z,47.30
2023-04-17T13:32:06.032Z,47.30
2023-04-17T13:34:07.915Z,47.30
2023-04-17T13:36:09.608Z,47.30
2023-04-17T13:38:11.368Z,47.30
2023-04-17T13:40:14.339Z,47.30
2023-04-17T13:42:18.730Z,47.30
2023-04-17T13:44:20.510Z,47.20
2023-04-17T13:46:22.235Z,47.10
2023-04-17T13:48:24.275Z,47.10
2023-04-17T13:50:25.972Z,47.10
2023-04-17T13:52:27.660Z,47.00
2023-04-17T13:54:29.354Z,47.00
2023-04-17T13:56:31.035Z,47.00
2023-04-17T13:58:35.814Z,46.90
2023-04-17T14:00:37.476Z,46.90
2023-04-17T14:02:39.289Z,46.90
2023-04-17T14:04:41.144Z,46.90
2023-04-17T14:06:44.226Z,46.90
2023-04-17T14:08:46.160Z,46.90
2023-04-17T14:10:47.884Z,46.90
2023-04-17T14:12:49.580Z,46.90
2023-04-17T14:14:51.198Z,47.00
2023-04-17T14:16:52.875Z,46.90
2023-04-17T14:18:54.555Z,46.90
2023-04-17T14:20:56.708Z,46.90
2023-04-17T14:22:59.208Z,47.00
2023-04-17T14:25:01.333Z,47.10
2023-04-17T14:27:03.550Z,47.60
2023-04-17T14:29:05.276Z,46.90
2023-04-17T14:31:07.366Z,47.00
2023-04-17T14:33:09.052Z,46.90
2023-04-17T14:35:10.710Z,46.90
2023-04-17T14:37:12.487Z,47.00
2023-04-17T14:39:14.389Z,47.00
2023-04-17T14:41:16.594Z,47.00
2023-04-17T14:43:18.471Z,47.00
2023-04-17T14:45:20.398Z,47.00
2023-04-17T14:47:22.101Z,47.10
2023-04-17T14:49:24.146Z,47.00
2023-04-17T14:51:26.863Z,47.00
2023-04-17T14:53:28.524Z,47.10
2023-04-17T14:55:30.682Z,47.10
2023-04-17T14:57:32.433Z,47.10
2023-04-17T14:59:34.278Z,47.20
2023-04-17T15:01:35.988Z,47.20
2023-04-17T15:03:37.937Z,47.10
2023-04-17T15:05:39.819Z,47.20
2023-04-17T15:07:41.444Z,47.20
2023-04-17T15:09:43.102Z,47.10
2023-04-17T15:11:46.519Z,47.10
2023-04-17T15:13:48.203Z,47.20
2023-04-17T15:15:49.889Z,47.30
2023-04-17T15:17:51.566Z,47.50
2023-04-17T15:19:56.192Z,47.60
2023-04-17T15:21:57.799Z,47.70
2023-04-17T15:23:59.438Z,47.40
2023-04-17T15:26:01.464Z,47.60
2023-04-17T15:28:03.117Z,47.70
2023-04-17T15:30:08.720Z,47.90
2023-04-17T15:32:10.429Z,48.00
2023-04-17T15:34:13.533Z,48.00
2023-04-17T15:36:15.407Z,48.10
2023-04-17T15:38:17.001Z,48.20
2023-04-17T15:40:18.617Z,48.10
2023-04-17T15:42:22.449Z,47.80
2023-04-17T15:44:24.127Z,48.00
2023-04-17T15:46:25.837Z,47.90
2023-04-17T15:48:28.265Z,47.90
2023-04-17T15:50:30.151Z,48.00
2023-04-17T15:52:31.904Z,48.50
2023-04-17T15:54:33.606Z,47.50
2023-04-17T15:56:35.372Z,47.80
2023-04-17T15:58:37.037Z,48.10
2023-04-17T16:00:38.956Z,47.70
2023-04-17T16:02:40.903Z,47.50
2023-04-17T16:04:43.752Z,47.40
2023-04-17T16:06:46.203Z,47.40
2023-04-17T16:08:47.938Z,47.30
2023-04-17T16:10:49.563Z,48.20
2023-04-17T16:12:51.214Z,47.40
2023-04-17T16:14:52.854Z,47.50
2023-04-17T16:16:54.439Z,47.60
2023-04-17T16:18:56.711Z,47.50
2023-04-17T16:20:58.396Z,47.60
2023-04-17T16:23:00.023Z,47.60
2023-04-17T16:25:01.872Z,47.80
2023-04-17T16:27:04.094Z,47.50
2023-04-17T16:29:05.743Z,47.60
2023-04-17T16:31:07.434Z,47.60
2023-04-17T16:33:09.264Z,47.60
2023-04-17T16:35:11.112Z,47.70
2023-04-17T16:37:14.720Z,47.60
2023-04-17T16:39:16.441Z,47.60
2023-04-17T16:41:18.642Z,47.60
2023-04-17T16:43:20.342Z,47.50
2023-04-17T16:45:22.041Z,47.60
2023-04-17T16:47:24.117Z,47.50
2023-04-17T16:49:25.886Z,47.50
2023-04-17T16:51:27.715Z,47.60
2023-04-17T16:53:29.361Z,47.50
2023-04-17T16:55:31.085Z,47.50
2023-04-17T16:57:36.187Z,47.50
2023-04-17T16:59:37.878Z,47.50
2023-04-17T17:01:39.638Z,47.70
2023-04-17T17:03:43.175Z,47.90
2023-04-17T17:05:44.997Z,47.70
2023-04-17T17:07:46.707Z,47.90
2023-04-17T17:09:48.365Z,47.70
2023-04-17T17:11:50.044Z,45.80
2023-04-17T17:13:53.060Z,45.60
2023-04-17T17:15:54.721Z,45.50
2023-04-17T17:17:56.410Z,46.10
2023-04-17T17:19:58.653Z,46.70
2023-04-17T17:22:00.378Z,47.00
2023-04-17T17:24:02.018Z,47.10
2023-04-17T17:26:04.054Z,47.00
2023-04-17T17:28:05.773Z,47.00
2023-04-17T17:30:08.229Z,47.20
2023-04-17T17:32:09.961Z,47.00
2023-04-17T17:34:25.262Z,47.10
2023-04-17T17:36:28.866Z,47.10
2023-04-17T17:38:32.577Z,47.20
2023-04-17T17:40:35.043Z,47.20
2023-04-17T17:42:36.702Z,47.20
2023-04-17T17:44:38.640Z,47.20
2023-04-17T17:46:40.453Z,47.20
2023-04-17T17:48:42.243Z,47.30
2023-04-17T17:50:44.457Z,47.30
2023-04-17T17:52:46.136Z,47.30
2023-04-17T17:54:47.744Z,47.40
2023-04-17T17:56:49.439Z,47.50
2023-04-17T17:58:51.185Z,47.50
2023-04-17T18:00:52.963Z,47.50
2023-04-17T18:02:54.739Z,47.60
2023-04-17T18:04:56.546Z,47.70
2023-04-17T18:06:58.250Z,47.70
2023-04-17T18:09:00.444Z,47.60
2023-04-17T18:11:02.191Z,47.90
2023-04-17T18:13:03.998Z,47.60
2023-04-17T18:15:06.315Z,47.70
2023-04-17T18:17:07.910Z,47.70
2023-04-17T18:19:09.733Z,47.70
2023-04-17T18:21:12.166Z,47.90
2023-04-17T18:23:13.809Z,47.90
2023-04-17T18:25:15.570Z,47.90
2023-04-17T18:27:17.177Z,47.80
2023-04-17T18:29:18.837Z,47.90
2023-04-17T18:31:22.744Z,47.90
2023-04-17T18:33:24.663Z,47.80
2023-04-17T18:35:26.355Z,48.00
2023-04-17T18:37:28.532Z,48.00
2023-04-17T18:39:30.801Z,47.90
2023-04-17T18:41:32.503Z,47.90
2023-04-17T18:43:34.301Z,47.90
2023-04-17T18:45:36.328Z,47.70
2023-04-17T18:47:38.013Z,47.80
2023-04-17T18:49:39.696Z,47.90
2023-04-17T18:51:47.568Z,47.80
2023-04-17T18:53:50.268Z,47.80
2023-04-17T18:55:52.477Z,47.80
2023-04-17T18:57:54.248Z,48.50
2023-04-17T18:59:55.878Z,48.60
2023-04-17T19:01:57.709Z,47.90
2023-04-17T19:03:59.377Z,47.90
2023-04-17T19:06:01.051Z,47.90
2023-04-17T19:08:02.668Z,47.80
2023-04-17T19:10:04.957Z,47.80
2023-04-17T19:12:06.773Z,47.90
2023-04-17T19:14:08.444Z,48.00
2023-04-17T19:16:11.211Z,47.90
2023-04-17T19:18:12.910Z,47.80
2023-04-17T19:20:16.510Z,47.80
2023-04-17T19:22:18.563Z,47.80
2023-04-17T19:24:20.380Z,47.90
2023-04-17T19:26:22.027Z,47.80
2023-04-17T19:28:24.992Z,47.90
2023-04-17T19:30:26.703Z,47.80
2023-04-17T19:32:29.296Z,47.70
2023-04-17T19:34:32.765Z,47.80
2023-04-17T19:36:35.907Z,47.90
2023-04-17T19:38:37.579Z,47.90
2023-04-17T19:40:39.277Z,47.90
2023-04-17T19:42:41.034Z,47.90
2023-04-17T19:44:42.702Z,47.90
2023-04-17T19:46:44.493Z,47.90
2023-04-17T19:48:47.236Z,47.90
2023-04-17T19:50:48.843Z,48.10
2023-04-17T19:52:51.063Z,47.90
2023-04-17T19:54:52.830Z,48.30
2023-04-17T19:56:54.455Z,49.10
2023-04-17T19:59:02.593Z,49.50
2023-04-17T20:01:04.422Z,49.60
2023-04-17T20:03:06.309Z,49.70
2023-04-17T20:05:09.029Z,49.90
2023-04-17T20:07:10.639Z,49.80
2023-04-17T20:09:14.566Z,50.00
2023-04-17T20:11:16.756Z,50.00
2023-04-17T20:13:18.425Z,50.10
2023-04-17T20:15:21.905Z,50.10
2023-04-17T20:17:23.652Z,50.10
2023-04-17T20:19:25.750Z,50.10
2023-04-17T20:21:27.676Z,50.20
2023-04-17T20:23:29.622Z,50.10
2023-04-17T20:25:31.460Z,50.10
2023-04-17T20:27:33.109Z,50.20
2023-04-17T20:29:34.883Z,50.10
2023-04-17T20:31:37.076Z,50.10
2023-04-17T20:33:38.844Z,50.10
2023-04-17T20:35:42.191Z,50.10
2023-04-17T20:37:44.648Z,50.00
2023-04-17T20:39:46.285Z,50.10
2023-04-17T20:41:48.031Z,49.90
2023-04-17T20:44:08.479Z,49.90
2023-04-17T20:46:10.332Z,49.90
2023-04-17T20:48:12.183Z,49.70
2023-04-17T20:50:14.073Z,49.60
2023-04-17T20:52:15.729Z,49.60
2023-04-17T20:54:17.394Z,49.70
2023-04-17T20:56:20.210Z,49.60
2023-04-17T20:58:21.826Z,49.80
2023-04-17T21:00:23.465Z,49.70
2023-04-17T21:02:25.426Z,49.70
2023-04-17T21:04:27.198Z,49.80
2023-04-17T21:06:28.964Z,49.80
2023-04-17T21:08:30.783Z,49.80
2023-04-17T21:10:32.438Z,49.80
2023-04-17T21:12:35.241Z,49.90
2023-04-17T21:14:37.110Z,49.90
2023-04-17T21:16:38.815Z,49.80
2023-04-17T21:18:40.523Z,49.80
2023-04-17T21:20:42.155Z,49.70
2023-04-17T21:22:43.772Z,49.90
2023-04-17T21:24:45.480Z,49.80
2023-04-17T21:26:47.160Z,49.90
2023-04-17T21:28:48.804Z,49.80
2023-04-17T21:30:50.546Z,50.00
2023-04-17T21:32:52.396Z,50.00
2023-04-17T21:34:54.088Z,49.90
2023-04-17T21:36:55.695Z,49.90
2023-04-17T21:38:57.327Z,49.80
2023-04-17T21:40:58.984Z,50.00
2023-04-17T21:43:01.055Z,50.10
2023-04-17T21:45:02.693Z,50.10
2023-04-17T21:47:04.393Z,50.00
2023-04-17T21:49:06.062Z,49.90
2023-04-17T21:51:07.815Z,50.00
2023-04-17T21:53:09.492Z,50.10
2023-04-17T21:55:11.242Z,50.00
2023-04-17T21:57:12.937Z,50.00
2023-04-17T21:59:14.797Z,49.90
2023-04-17T22:01:16.521Z,49.90
2023-04-17T22:03:18.517Z,50.00
2023-04-17T22:05:20.179Z,50.00
2023-04-17T22:07:22.257Z,50.00
2023-04-17T22:09:24.016Z,50.00
2023-04-17T22:11:25.626Z,50.10
2023-04-17T22:13:27.241Z,50.10
2023-04-17T22:15:28.924Z,50.30
2023-04-17T22:17:30.715Z,50.20
2023-04-17T22:19:32.497Z,50.20
2023-04-17T22:21:34.223Z,50.20
2023-04-17T22:23:35.913Z,50.10
2023-04-17T22:25:37.592Z,50.10
2023-04-17T22:27:39.457Z,50.10
2023-04-17T22:29:41.116Z,50.10
2023-04-17T22:31:42.735Z,50.10
2023-04-17T22:33:44.923Z,50.20
2023-04-17T22:35:46.513Z,50.20
2023-04-17T22:37:48.134Z,50.30
2023-04-17T22:39:49.728Z,50.20
2023-04-17T22:41:51.417Z,50.30
2023-04-17T22:43:53.086Z,50.30
2023-04-17T22:45:54.756Z,50.40
2023-04-17T22:47:56.512Z,50.40
2023-04-17T22:49:59.080Z,50.40
2023-04-17T22:52:00.991Z,50.20
2023-04-17T22:54:08.763Z,50.30
2023-04-17T22:56:21.104Z,50.20
2023-04-17T22:58:22.756Z,50.20
2023-04-17T23:00:25.354Z,50.20
2023-04-17T23:02:27.197Z,50.10
2023-04-17T23:04:28.891Z,50.20
2023-04-17T23:06:31.873Z,50.40
2023-04-17T23:08:33.522Z,50.40
2023-04-17T23:10:35.246Z,50.50
2023-04-17T23:12:36.902Z,50.50
2023-04-17T23:14:38.573Z,50.40
2023-04-17T23:16:40.235Z,50.40
2023-04-17T23:18:42.006Z,50.40
2023-04-17T23:20:43.659Z,50.40
2023-04-17T23:22:45.319Z,50.30
2023-04-17T23:24:47.002Z,50.20
2023-04-17T23:26:48.836Z,50.20
2023-04-17T23:28:50.456Z,50.20
2023-04-17T23:30:52.066Z,50.20
2023-04-17T23:32:54.884Z,50.30
2023-04-17T23:34:56.564Z,50.30
2023-04-17T23:36:58.450Z,50.30
2023-04-17T23:39:00.197Z,50.40
2023-04-17T23:41:01.976Z,50.40
2023-04-17T23:43:03.712Z,50.30
2023-04-17T23:45:06.136Z,50.40
2023-04-17T23:47:08.920Z,50.30
2023-04-17T23:49:11.725Z,50.30
2023-04-17T23:51:13.376Z,50.30
2023-04-17T23:53:15.065Z,50.20
2023-04-17T23:55:16.770Z,50.10
2023-04-17T23:57:18.417Z,50.80
2023-04-17T23:59:20.423Z,50.10
